Time;durP1;ratioP1;P1;durP2;ratioP2;P2;SDS_P1;SDS_P2;PMS_P1;PMS_P2;Temp;Humidity;BMP_temperature;BMP_pressure;BME280_temperature;BME280_humidity;BME280_pressure;Samples;Min_cycle;Max_cycle;Signal;HPM_P1;HPM_P2
2023/12/28 19:00:42;;;;;;;;;;;7.50;99.90;;;;;;5102938;27;19916;-72
2023/12/28 19:03:10;;;;;;;;;;;7.50;99.90;;;;;;5103271;28;19924;-72
2023/12/28 19:05:36;;;;;;;;;;;7.40;99.90;;;;;;5102560;28;19934;-75
2023/12/28 19:08:05;;;;;;;;;;;7.40;99.90;;;;;;5103412;28;19923;-75
2023/12/28 19:10:32;;;;;;;;;;;7.40;99.90;;;;;;5102080;28;20416;-69
2023/12/28 19:12:58;;;;;;;;;;;7.40;99.90;;;;;;5101288;28;19931;-74
2023/12/28 19:15:25;;;;;;;;;;;7.40;99.90;;;;;;5101310;28;20581;-73
2023/12/28 19:17:53;;;;;;;;;;;7.40;99.90;;;;;;5101578;28;19927;-74
2023/12/28 19:20:19;;;;;;;;;;;7.30;99.90;;;;;;5101376;28;19924;-73
2023/12/28 19:22:46;;;;;;;;;;;7.30;99.90;;;;;;5102333;28;19931;-74
2023/12/28 19:25:13;;;;;;;;;;;7.30;99.90;;;;;;5101622;28;20018;-73
2023/12/28 19:27:40;;;;;;;;;;;7.30;99.90;;;;;;5100888;28;19938;-75
2023/12/28 19:30:08;;;;;;;;;;;7.20;99.90;;;;;;5098708;28;19928;-74
2023/12/28 19:32:34;;;;;;;;;;;7.20;99.90;;;;;;5102878;28;20417;-74
2023/12/28 19:35:02;;;;;;;;;;;7.20;99.90;;;;;;5094603;28;19924;-74
2023/12/28 19:37:29;;;;;;;;;;;7.20;99.90;;;;;;5098031;28;19924;-74
2023/12/28 19:39:55;;;;;;;;;;;7.20;99.90;;;;;;5103367;28;19977;-74
2023/12/28 19:42:22;;;;;;;;;;;7.20;99.90;;;;;;5094201;28;19951;-72
2023/12/28 19:44:49;;;;;;;;;;;7.20;99.90;;;;;;5093481;28;19943;-74
2023/12/28 19:47:15;;;;;;;;;;;7.20;99.90;;;;;;5090645;28;19924;-74
2023/12/28 19:49:42;;;;;;;;;;;7.20;99.90;;;;;;5105585;28;20343;-75
2023/12/28 19:52:09;;;;;;;;;;;7.20;99.90;;;;;;5100477;28;19928;-74
2023/12/28 19:54:36;;;;;;;;;;;7.20;99.90;;;;;;5099965;28;20389;-73
2023/12/28 19:57:03;;;;;;;;;;;7.10;99.90;;;;;;5096395;28;19959;-74
2023/12/28 19:59:30;;;;;;;;;;;7.20;99.90;;;;;;5089655;28;19928;-74
2023/12/28 20:01:57;;;;;;;;;;;7.20;99.90;;;;;;5102162;28;19924;-74
2023/12/28 20:04:23;;;;;;;;;;;7.10;99.90;;;;;;5099407;28;20200;-75
2023/12/28 20:06:50;;;;;;;;;;;7.20;99.90;;;;;;5096108;28;19993;-74
2023/12/28 20:09:18;;;;;;;;;;;7.20;99.90;;;;;;5092890;28;19978;-74
2023/12/28 20:11:47;;;;;;;;;;;7.30;99.90;;;;;;5082357;28;19943;-74
2023/12/28 20:14:14;;;;;;;;;;;7.30;99.90;;;;;;5076809;28;20394;-74
2023/12/28 20:16:42;;;;;;;;;;;7.30;99.90;;;;;;5085623;28;19924;-74
2023/12/28 20:19:08;;;;;;;;;;;7.40;99.90;;;;;;5087904;28;20462;-74
2023/12/28 20:21:36;;;;;;;;;;;7.40;99.90;;;;;;5081028;28;19925;-74
2023/12/28 20:24:03;;;;;;;;;;;7.40;99.90;;;;;;5084276;28;19959;-74
2023/12/28 20:26:31;;;;;;;;;;;7.40;99.90;;;;;;5081135;28;19975;-75
2023/12/28 20:28:58;;;;;;;;;;;7.40;99.90;;;;;;5078230;28;19924;-74
2023/12/28 20:31:24;;;;;;;;;;;7.30;99.90;;;;;;5085279;28;20437;-74
2023/12/28 20:33:51;;;;;;;;;;;7.30;99.90;;;;;;5080648;28;19934;-75
2023/12/28 20:36:18;;;;;;;;;;;7.40;99.90;;;;;;5082970;28;19986;-75
2023/12/28 20:38:44;;;;;;;;;;;7.40;99.90;;;;;;5082816;28;19950;-74
2023/12/28 20:41:16;;;;;;;;;;;7.40;99.90;;;;;;5082957;28;19950;-75
2023/12/28 20:43:44;;;;;;;;;;;7.30;99.90;;;;;;5086899;28;19924;-74
2023/12/28 20:46:11;;;;;;;;;;;7.30;99.90;;;;;;5085478;28;19924;-75
2023/12/28 20:48:37;;;;;;;;;;;7.30;99.90;;;;;;5079305;28;19955;-75
2023/12/28 20:51:05;;;;;;;;;;;7.20;99.90;;;;;;5084416;28;19928;-74
2023/12/28 20:53:31;;;;;;;;;;;7.20;99.90;;;;;;5082884;28;19924;-75
2023/12/28 20:55:58;;;;;;;;;;;7.20;99.90;;;;;;5084952;28;19932;-75
2023/12/28 20:58:25;;;;;;;;;;;7.10;99.90;;;;;;5080343;28;20322;-75
2023/12/28 21:00:53;;;;;;;;;;;7.10;99.90;;;;;;5086340;28;20385;-75
2023/12/28 21:03:19;;;;;;;;;;;7.00;99.90;;;;;;5081450;28;19929;-75
2023/12/28 21:05:46;;;;;;;;;;;7.00;99.90;;;;;;5080036;28;19973;-75
2023/12/28 21:08:12;;;;;;;;;;;6.90;99.90;;;;;;5077194;28;19924;-75
2023/12/28 21:10:39;;;;;;;;;;;6.90;99.90;;;;;;5079962;28;19924;-74
2023/12/28 21:13:06;;;;;;;;;;;6.90;99.90;;;;;;5084135;28;20398;-75
2023/12/28 21:15:33;;;;;;;;;;;6.80;99.90;;;;;;5082315;28;19931;-74
2023/12/28 21:18:01;;;;;;;;;;;6.80;99.90;;;;;;5085655;28;20463;-75
2023/12/28 21:20:27;;;;;;;;;;;6.80;99.90;;;;;;5075558;28;19924;-75
2023/12/28 21:22:54;;;;;;;;;;;6.80;99.90;;;;;;5085785;28;19977;-74
2023/12/28 21:25:21;;;;;;;;;;;6.80;99.90;;;;;;5083326;28;19928;-74
2023/12/28 21:27:48;;;;;;;;;;;6.80;99.90;;;;;;5086258;28;20305;-74
2023/12/28 21:30:14;;;;;;;;;;;6.70;99.90;;;;;;5081707;28;19935;-75
2023/12/28 21:32:41;;;;;;;;;;;6.60;99.90;;;;;;5081996;28;19928;-75
2023/12/28 21:35:10;;;;;;;;;;;6.60;99.90;;;;;;5084169;28;20389;-74
2023/12/28 21:37:36;;;;;;;;;;;6.50;99.90;;;;;;5089884;28;20205;-74
2023/12/28 21:40:04;;;;;;;;;;;6.50;99.90;;;;;;5085312;28;19924;-75
2023/12/28 21:42:33;;;;;;;;;;;6.50;99.90;;;;;;5080585;28;20387;-74
2023/12/28 21:45:00;;;;;;;;;;;6.50;99.90;;;;;;5079939;28;19931;-74
2023/12/28 21:47:27;;;;;;;;;;;6.40;99.90;;;;;;5078763;28;19924;-75
2023/12/28 21:49:53;;;;;;;;;;;6.40;99.90;;;;;;5080205;28;19924;-74
2023/12/28 21:52:21;;;;;;;;;;;6.40;99.90;;;;;;5083813;28;20799;-75
2023/12/28 21:54:48;;;;;;;;;;;6.40;99.90;;;;;;5083248;28;20378;-74
2023/12/28 21:57:15;;;;;;;;;;;6.40;99.90;;;;;;5081258;28;19924;-75
2023/12/28 21:59:41;;;;;;;;;;;6.40;99.90;;;;;;5081793;28;19951;-76
2023/12/28 22:02:08;;;;;;;;;;;6.40;99.90;;;;;;5086132;28;19977;-75
2023/12/28 22:04:34;;;;;;;;;;;6.40;99.90;;;;;;5080933;28;19951;-75
2023/12/28 22:07:01;;;;;;;;;;;6.30;99.90;;;;;;5084851;28;19928;-74
2023/12/28 22:09:29;;;;;;;;;;;6.30;99.90;;;;;;5081552;28;20345;-75
2023/12/28 22:11:55;;;;;;;;;;;6.30;99.90;;;;;;5082907;28;19928;-75
2023/12/28 22:14:22;;;;;;;;;;;6.40;99.90;;;;;;5075812;28;20468;-74
2023/12/28 22:16:49;;;;;;;;;;;6.40;99.90;;;;;;5083878;28;20111;-74
2023/12/28 22:19:15;;;;;;;;;;;6.40;99.90;;;;;;5082706;28;19930;-75
2023/12/28 22:21:42;;;;;;;;;;;6.40;99.90;;;;;;5084063;28;19928;-75
2023/12/28 22:24:08;;;;;;;;;;;6.40;99.90;;;;;;5083601;28;19924;-74
2023/12/28 22:26:37;;;;;;;;;;;6.40;99.90;;;;;;5072013;28;19932;-74
2023/12/28 22:29:04;;;;;;;;;;;6.40;99.90;;;;;;5080867;28;19967;-74
2023/12/28 22:31:30;;;;;;;;;;;6.40;99.90;;;;;;5081624;28;19942;-74
2023/12/28 22:33:57;;;;;;;;;;;6.40;99.90;;;;;;5080975;28;19924;-74
2023/12/28 22:36:23;;;;;;;;;;;6.40;99.90;;;;;;5081236;28;19932;-75
2023/12/28 22:38:50;;;;;;;;;;;6.40;99.90;;;;;;5073114;28;20148;-74
2023/12/28 22:41:16;;;;;;;;;;;6.40;99.90;;;;;;5074357;28;20340;-74
2023/12/28 22:43:45;;;;;;;;;;;6.40;99.90;;;;;;5076002;28;19928;-75
2023/12/28 22:46:11;;;;;;;;;;;6.50;99.90;;;;;;5074575;28;20434;-75
2023/12/28 22:48:38;;;;;;;;;;;6.50;99.90;;;;;;5079916;28;19932;-74
2023/12/28 22:51:05;;;;;;;;;;;6.50;99.90;;;;;;5080665;28;19924;-75
2023/12/28 22:53:30;;;;;;;;;;;6.60;99.90;;;;;;5074320;28;20353;-75
2023/12/28 22:55:57;;;;;;;;;;;6.60;99.90;;;;;;5075242;28;19920;-74
2023/12/28 22:58:23;;;;;;;;;;;6.60;99.90;;;;;;5075532;28;19985;-75
2023/12/28 23:00:53;;;;;;;;;;;6.60;99.90;;;;;;5082610;28;19924;-75
2023/12/28 23:03:19;;;;;;;;;;;6.70;99.90;;;;;;5084050;28;19924;-74
2023/12/28 23:05:46;;;;;;;;;;;6.80;99.90;;;;;;5079997;28;19982;-75
2023/12/28 23:08:12;;;;;;;;;;;6.70;99.90;;;;;;5074923;28;19928;-76
2023/12/28 23:10:39;;;;;;;;;;;6.70;99.90;;;;;;5082213;28;20333;-75
2023/12/28 23:13:05;;;;;;;;;;;6.60;99.90;;;;;;5086457;28;19932;-74
2023/12/28 23:15:32;;;;;;;;;;;6.60;99.90;;;;;;5087545;28;19928;-75
2023/12/28 23:18:00;;;;;;;;;;;6.60;99.90;;;;;;5082803;28;19971;-75
2023/12/28 23:20:26;;;;;;;;;;;6.50;99.90;;;;;;5081434;28;19978;-75
2023/12/28 23:22:53;;;;;;;;;;;6.50;99.90;;;;;;5072835;28;20360;-72
2023/12/28 23:25:20;;;;;;;;;;;6.50;99.90;;;;;;5075123;28;19932;-72
2023/12/28 23:27:47;;;;;;;;;;;6.50;99.90;;;;;;5082387;28;20231;-72
2023/12/28 23:30:14;;;;;;;;;;;6.50;99.90;;;;;;5080237;28;20007;-73
2023/12/28 23:32:40;;;;;;;;;;;6.50;99.90;;;;;;5086008;28;19970;-76
2023/12/28 23:35:09;;;;;;;;;;;6.60;99.90;;;;;;5079536;28;19928;-73
2023/12/28 23:37:36;;;;;;;;;;;6.60;99.90;;;;;;5082637;28;20221;-73
2023/12/28 23:40:02;;;;;;;;;;;6.60;99.90;;;;;;5087536;28;19924;-74
2023/12/28 23:42:29;;;;;;;;;;;6.60;99.90;;;;;;5085192;28;19936;-73
2023/12/28 23:44:55;;;;;;;;;;;6.60;99.90;;;;;;5089339;28;19928;-73
2023/12/28 23:47:22;;;;;;;;;;;6.60;99.90;;;;;;5085467;28;20381;-73
2023/12/28 23:49:48;;;;;;;;;;;6.70;99.90;;;;;;5082526;28;19943;-73
2023/12/28 23:52:16;;;;;;;;;;;6.60;99.90;;;;;;5087455;28;19924;-73
2023/12/28 23:54:42;;;;;;;;;;;6.60;99.90;;;;;;5084231;28;19978;-75
2023/12/28 23:57:09;;;;;;;;;;;6.50;99.90;;;;;;5088716;28;19923;-75
2023/12/28 23:59:39;;;;;;;;;;;6.50;99.90;;;;;;5087336;28;20410;-74
